Queen Of Cowichan — CZ4990 — position and weather

sailwx.info

Track history (hours):
 
Tides and Currents Weather Stations Pressure Air Temp Water Temp Dewpoint Dewpoint Depression Visibility Wind Speed Wind Dir Waves Ship Positions

Queen Of Cowichan

Last reported at 2014-Sep-30 07:32 UTC. Time now 2014-Sep-30 10:10 UTC.
Position N 49°12' W 123°57'.

Length 139 m; draft 5.5 m.

Type: Passenger vessel. MMSI: 316001251.

Date/timePositionNaut miles runAvg speedWind from/ knotsBaromVisibWave heightAir tempDewpointWater temp
2014-Sep-30 07:32N 49°12' W 123°57'5 4.9
2014-Sep-30 06:33N 49°14' W 123°51'2019.9
2014-Sep-30 05:34N 49°19' W 123°22'0 0.4
2014-Sep-30 04:33N 49°19' W 123°22'1414.0
2014-Sep-30 03:34N 49°08' W 123°35'1510.5
2014-Sep-30 02:09N 49°12' W 123°57'1016.7
2014-Sep-30 01:33N 49°16' W 123°44'1919.0
2014-Sep-30 00:34N 49°23' W 123°17'6 6.0
2014-Sep-29 23:33N 49°19' W 123°23'2019.8
2014-Sep-29 22:33N 49°14' W 123°53'3 3.0
2014-Sep-29 21:33N 49°12' W 123°57'2019.5
2014-Sep-29 20:34N 49°19' W 123°29'9 8.9
2014-Sep-29 19:33N 49°23' W 123°16'1414.3
2014-Sep-29 18:34N 49°16' W 123°36'1510.8
2014-Sep-29 17:11N 49°12' W 123°57'1016.6
2014-Sep-29 16:33N 49°16' W 123°43'1918.8
2014-Sep-29 15:33N 49°23' W 123°16'7 6.6
2014-Sep-29 14:33N 49°19' W 123°24'2019.7
2014-Sep-29 13:33N 49°13' W 123°53'3 3.0
2014-Sep-29 12:29N 49°12' W 123°57'0 0.0
2014-Sep-29 11:11N 49°12' W 123°57'0 0.0
2014-Sep-29 10:08N 49°12' W 123°57'0 0.0
2014-Sep-29 09:32N 49°12' W 123°57'0 0.0
2014-Sep-29 08:29N 49°12' W 123°57'0 0.0
2014-Sep-29 07:29N 49°12' W 123°57'0 0.0
2014-Sep-29 03:33N 49°12' W 123°57'1817.8
2014-Sep-29 02:34N 49°18' W 123°32'1110.9
2014-Sep-29 01:32N 49°23' W 123°16'9 8.3
2014-Sep-29 00:30N 49°26' W 123°28'9 7.7
2014-Sep-28 23:23N 49°23' W 123°16'8 9.3
2014-Sep-28 22:33N 49°18' W 123°26'1919.0
2014-Sep-28 21:33N 49°13' W 123°54'3 0.7
2014-Sep-28 17:30N 49°12' W 123°57'0 0.0
2014-Sep-28 10:24N 49°12' W 123°57'0 0.0
2014-Sep-28 09:12N 49°12' W 123°57'0 0.0
2014-Sep-28 06:18N 49°12' W 123°57'0 0.0
2014-Sep-28 05:30N 49°12' W 123°57'0 0.0
2014-Sep-28 01:24N 49°12' W 123°57'0 0.0
2014-Sep-27 21:12N 49°12' W 123°57'0 0.0
2014-Sep-27 20:12N 49°12' W 123°57'0 0.0
2014-Sep-27 18:24N 49°12' W 123°57'0 0.0
2014-Sep-27 13:12N 49°12' W 123°57'0 0.0
2014-Sep-27 12:18N 49°12' W 123°57'0 0.0
2014-Sep-27 10:24N 49°12' W 123°57'0 0.0
2014-Sep-27 09:30N 49°12' W 123°57'0 0.0
2014-Sep-27 08:06N 49°12' W 123°57'0 0.0
2014-Sep-27 07:24N 49°12' W 123°57'0 0.0
2014-Sep-27 01:33N 49°12' W 123°57'1716.8
2014-Sep-27 00:33N 49°18' W 123°34'1211.7
2014-Sep-26 23:31N 49°23' W 123°16'9 9.0
2014-Sep-26 22:33N 49°26' W 123°28'9 8.6
2014-Sep-26 21:33N 49°23' W 123°16'1 1.1
2014-Sep-26 20:33N 49°23' W 123°18'1918.8
2014-Sep-26 19:33N 49°15' W 123°44'9 9.1
2014-Sep-26 18:33N 49°12' W 123°57'0 0.0
2014-Sep-26 17:28N 49°12' W 123°57'0 0.0
2014-Sep-26 16:28N 49°12' W 123°57'0 0.0
2014-Sep-26 15:04N 49°12' W 123°57'0 0.0
2014-Sep-26 14:28N 49°12' W 123°57'0 0.0
2014-Sep-26 13:28N 49°12' W 123°57'0 0.0
2014-Sep-26 12:16N 49°12' W 123°57'0 0.0
2014-Sep-26 11:28N 49°12' W 123°57'0 0.0
2014-Sep-26 10:25N 49°12' W 123°57'0 0.0
2014-Sep-26 09:22N 49°12' W 123°57'0 0.0
2014-Sep-26 08:28N 49°12' W 123°57'0 0.0
2014-Sep-26 07:28N 49°12' W 123°57'0 0.0
2014-Sep-26 06:28N 49°12' W 123°57'1313.8
2014-Sep-26 05:34N 49°16' W 123°39'1615.5
2014-Sep-26 04:30N 49°23' W 123°16'1212.8
2014-Sep-26 03:34N 49°17' W 123°33'1716.8
2014-Sep-26 02:33N 49°12' W 123°57'1211.9
2014-Sep-26 01:34N 49°16' W 123°41'1717.0
2014-Sep-26 00:33N 49°23' W 123°16'5 5.3
2014-Sep-25 23:33N 49°19' W 123°23'2019.8
2014-Sep-25 22:33N 49°14' W 123°52'4 3.5
2014-Sep-25 21:33N 49°12' W 123°57'1919.5
2014-Sep-25 20:34N 49°19' W 123°28'9 8.7
2014-Sep-25 19:33N 49°23' W 123°16'1313.0
2014-Sep-25 18:33N 49°17' W 123°34'1615.0
2014-Sep-25 17:29N 49°12' W 123°57'1111.4
2014-Sep-25 16:33N 49°16' W 123°43'1818.5
2014-Sep-25 15:33N 49°23' W 123°16'6 5.8
2014-Sep-25 14:33N 49°19' W 123°23'2019.7
2014-Sep-25 13:33N 49°14' W 123°52'4 3.5
2014-Sep-25 12:27N 49°12' W 123°57'0 0.0
2014-Sep-25 11:27N 49°12' W 123°57'0 0.0
2014-Sep-25 10:27N 49°12' W 123°57'0 0.0
2014-Sep-25 09:33N 49°12' W 123°57'0 0.0
2014-Sep-25 08:33N 49°12' W 123°57'0 0.0
2014-Sep-25 07:33N 49°12' W 123°57'0 0.0
2014-Sep-25 06:27N 49°12' W 123°57'1011.5
2014-Sep-25 05:33N 49°16' W 123°43'1918.8
2014-Sep-25 04:34N 49°23' W 123°16'9 8.6
2014-Sep-25 03:34N 49°18' W 123°27'2019.8
2014-Sep-25 02:34N 49°12' W 123°56'6 6.0
2014-Sep-25 01:33N 49°15' W 123°48'2019.6
2014-Sep-25 00:33N 49°21' W 123°20'0 0.0
2014-Sep-24 23:33N 49°21' W 123°20'1919.2
2014-Sep-24 22:33N 49°14' W 123°47'7 7.1
2014-Sep-24 21:33N 49°12' W 123°57'1716.6
2014-Sep-24 20:33N 49°18' W 123°34'1212.3
2014-Sep-24 19:33N 49°23' W 123°16'1212.4
2014-Sep-24 18:33N 49°16' W 123°33'1716.8
2014-Sep-24 17:33N 49°12' W 123°57'1010.1
2014-Sep-24 16:33N 49°16' W 123°43'1918.8
2014-Sep-24 15:33N 49°23' W 123°16'6 5.8
2014-Sep-24 14:33N 49°19' W 123°22'2020.2
2014-Sep-24 13:33N 49°14' W 123°52'4 3.8
2014-Sep-24 12:33N 49°12' W 123°57'0 0.0
2014-Sep-24 11:20N 49°12' W 123°57'0 0.0
2014-Sep-24 09:08N 49°12' W 123°57'0 0.0
2014-Sep-24 08:14N 49°12' W 123°57'0 0.0
2014-Sep-24 07:14N 49°12' W 123°57'0 0.0
2014-Sep-24 06:13N 49°12' W 123°57'1015.4
2014-Sep-24 05:34N 49°16' W 123°43'1918.9
2014-Sep-24 04:34N 49°23' W 123°16'9 8.9
2014-Sep-24 03:33N 49°18' W 123°27'2019.8
2014-Sep-24 02:33N 49°12' W 123°57'6 6.1
2014-Sep-24 01:34N 49°15' W 123°49'2019.6
2014-Sep-24 00:34N 49°21' W 123°20'0 0.1
2014-Sep-23 23:33N 49°21' W 123°20'1919.3
2014-Sep-23 22:33N 49°14' W 123°48'7 6.6
2014-Sep-23 21:32N 49°12' W 123°57'1818.4
2014-Sep-23 20:34N 49°18' W 123°32'1111.0
2014-Sep-23 19:33N 49°23' W 123°16'1312.8
2014-Sep-23 18:33N 49°17' W 123°34'1616.3
2014-Sep-23 17:33N 49°12' W 123°57'10 9.6
2014-Sep-23 16:34N 49°16' W 123°44'1919.2
2014-Sep-23 15:34N 49°23' W 123°17'6 6.2
2014-Sep-23 14:33N 49°19' W 123°24'2019.8
2014-Sep-23 13:33N 49°13' W 123°53'3 2.7
2014-Sep-23 12:18N 49°12' W 123°57'0 0.0
2014-Sep-23 06:24N 49°12' W 123°57'1315.7
2014-Sep-23 05:34N 49°17' W 123°39'1614.4
2014-Sep-23 04:28N 49°23' W 123°16'1213.3
2014-Sep-23 03:33N 49°17' W 123°32'1715.1
2014-Sep-23 02:26N 49°12' W 123°57'1011.8
2014-Sep-23 01:34N 49°16' W 123°43'1918.8
2014-Sep-23 00:33N 49°23' W 123°16'6 6.1
2014-Sep-22 23:34N 49°19' W 123°23'2019.9
2014-Sep-22 22:34N 49°14' W 123°52'3 2.8
2014-Sep-22 21:34N 49°12' W 123°56'2019.9
2014-Sep-22 20:34N 49°19' W 123°27'8 8.1
2014-Sep-22 19:33N 49°23' W 123°16'1414.3
2014-Sep-22 18:34N 49°16' W 123°36'1514.7
2014-Sep-22 17:33N 49°12' W 123°57'1110.7
2014-Sep-22 16:33N 49°16' W 123°42'1818.3
2014-Sep-22 15:33N 49°23' W 123°16'7 6.6
2014-Sep-22 14:34N 49°19' W 123°24'2019.9
2014-Sep-22 13:34N 49°13' W 123°54'3 2.8
2014-Sep-22 12:31N 49°12' W 123°57'0 0.0
2014-Sep-22 11:28N 49°12' W 123°57'0 0.0
2014-Sep-22 10:25N 49°12' W 123°57'0 0.0
2014-Sep-22 09:31N 49°12' W 123°57'0 0.0
2014-Sep-22 08:28N 49°12' W 123°57'0 0.0
2014-Sep-22 07:28N 49°12' W 123°57'0 0.0
2014-Sep-22 05:22N 49°12' W 123°57'0 0.0
2014-Sep-22 04:16N 49°12' W 123°57'0 0.0
2014-Sep-22 03:33N 49°12' W 123°57'1716.9
2014-Sep-22 02:33N 49°18' W 123°33'1212.1
2014-Sep-22 01:33N 49°23' W 123°16'9 8.6
2014-Sep-22 00:33N 49°26' W 123°28'8 8.1
2014-Sep-21 23:34N 49°24' W 123°16'5 4.8
2014-Sep-21 22:33N 49°20' W 123°21'2019.8
2014-Sep-21 21:33N 49°14' W 123°50'6 1.3
2014-Sep-21 17:24N 49°12' W 123°57'0 0.0
2014-Sep-21 15:30N 49°12' W 123°57'0 0.0
2014-Sep-21 14:18N 49°12' W 123°57'0 0.0
2014-Sep-21 13:30N 49°12' W 123°57'0 0.0
2014-Sep-21 12:30N 49°12' W 123°57'0 0.0
2014-Sep-21 11:30N 49°12' W 123°57'0 0.0
2014-Sep-21 10:12N 49°12' W 123°57'0 0.0
2014-Sep-21 08:30N 49°12' W 123°57'0 0.0
2014-Sep-21 07:30N 49°12' W 123°57'0 0.0
2014-Sep-21 06:24N 49°12' W 123°57'0 0.0
2014-Sep-21 05:30N 49°12' W 123°57'0 0.0
2014-Sep-21 04:12N 49°12' W 123°57'0 0.0
2014-Sep-21 01:15N 49°12' W 123°57'0 0.0
2014-Sep-21 00:33N 49°12' W 123°57'0 0.0
2014-Sep-20 23:33N 49°12' W 123°57'0 0.0
2014-Sep-20 22:30N 49°12' W 123°57'0 0.0
2014-Sep-20 19:12N 49°12' W 123°57'0 0.0
2014-Sep-20 16:30N 49°12' W 123°57'0 0.0
2014-Sep-20 15:33N 49°12' W 123°57'0 0.0
2014-Sep-20 14:24N 49°12' W 123°57'0 0.0
2014-Sep-20 13:30N 49°12' W 123°57'0 0.0
2014-Sep-20 12:30N 49°12' W 123°57'0 0.0
2014-Sep-20 11:24N 49°12' W 123°57'0 0.0
2014-Sep-20 10:30N 49°12' W 123°57'0 0.0
2014-Sep-20 09:30N 49°12' W 123°57'0 0.0
2014-Sep-20 08:24N 49°12' W 123°57'  
Track history (hours):
 
Tides and Currents Weather Stations Pressure Air Temp Water Temp Dewpoint Dewpoint Depression Visibility Wind Speed Wind Dir Waves Ship Positions

Queen Of Cowichan

Last reported at 2014-Sep-30 07:32 UTC. Time now 2014-Sep-30 10:10 UTC.
Position N 49°12' W 123°57'.

Length 139 m; draft 5.5 m.

Type: Passenger vessel. MMSI: 316001251.

Date/timePositionNaut miles runAvg speedWind from/ knotsBaromVisibWave heightAir tempDewpointWater temp
2014-Sep-30 07:32N 49°12' W 123°57'5 4.9
2014-Sep-30 06:33N 49°14' W 123°51'2019.9
2014-Sep-30 05:34N 49°19' W 123°22'0 0.4
2014-Sep-30 04:33N 49°19' W 123°22'1414.0
2014-Sep-30 03:34N 49°08' W 123°35'1510.5
2014-Sep-30 02:09N 49°12' W 123°57'1016.7
2014-Sep-30 01:33N 49°16' W 123°44'1919.0
2014-Sep-30 00:34N 49°23' W 123°17'6 6.0
2014-Sep-29 23:33N 49°19' W 123°23'2019.8
2014-Sep-29 22:33N 49°14' W 123°53'3 3.0
2014-Sep-29 21:33N 49°12' W 123°57'2019.5
2014-Sep-29 20:34N 49°19' W 123°29'9 8.9
2014-Sep-29 19:33N 49°23' W 123°16'1414.3
2014-Sep-29 18:34N 49°16' W 123°36'1510.8
2014-Sep-29 17:11N 49°12' W 123°57'1016.6
2014-Sep-29 16:33N 49°16' W 123°43'1918.8
2014-Sep-29 15:33N 49°23' W 123°16'7 6.6
2014-Sep-29 14:33N 49°19' W 123°24'2019.7
2014-Sep-29 13:33N 49°13' W 123°53'3 3.0
2014-Sep-29 12:29N 49°12' W 123°57'0 0.0
2014-Sep-29 11:11N 49°12' W 123°57'0 0.0
2014-Sep-29 10:08N 49°12' W 123°57'0 0.0
2014-Sep-29 09:32N 49°12' W 123°57'0 0.0
2014-Sep-29 08:29N 49°12' W 123°57'0 0.0
2014-Sep-29 07:29N 49°12' W 123°57'0 0.0
2014-Sep-29 03:33N 49°12' W 123°57'1817.8
2014-Sep-29 02:34N 49°18' W 123°32'1110.9
2014-Sep-29 01:32N 49°23' W 123°16'9 8.3
2014-Sep-29 00:30N 49°26' W 123°28'9 7.7
2014-Sep-28 23:23N 49°23' W 123°16'8 9.3
2014-Sep-28 22:33N 49°18' W 123°26'1919.0
2014-Sep-28 21:33N 49°13' W 123°54'3 0.7
2014-Sep-28 17:30N 49°12' W 123°57'0 0.0
2014-Sep-28 10:24N 49°12' W 123°57'0 0.0
2014-Sep-28 09:12N 49°12' W 123°57'0 0.0
2014-Sep-28 06:18N 49°12' W 123°57'0 0.0
2014-Sep-28 05:30N 49°12' W 123°57'0 0.0
2014-Sep-28 01:24N 49°12' W 123°57'0 0.0
2014-Sep-27 21:12N 49°12' W 123°57'0 0.0
2014-Sep-27 20:12N 49°12' W 123°57'0 0.0
2014-Sep-27 18:24N 49°12' W 123°57'0 0.0
2014-Sep-27 13:12N 49°12' W 123°57'0 0.0
2014-Sep-27 12:18N 49°12' W 123°57'0 0.0
2014-Sep-27 10:24N 49°12' W 123°57'0 0.0
2014-Sep-27 09:30N 49°12' W 123°57'0 0.0
2014-Sep-27 08:06N 49°12' W 123°57'0 0.0
2014-Sep-27 07:24N 49°12' W 123°57'0 0.0
2014-Sep-27 01:33N 49°12' W 123°57'1716.8
2014-Sep-27 00:33N 49°18' W 123°34'1211.7
2014-Sep-26 23:31N 49°23' W 123°16'9 9.0
2014-Sep-26 22:33N 49°26' W 123°28'9 8.6
2014-Sep-26 21:33N 49°23' W 123°16'1 1.1
2014-Sep-26 20:33N 49°23' W 123°18'1918.8
2014-Sep-26 19:33N 49°15' W 123°44'9 9.1
2014-Sep-26 18:33N 49°12' W 123°57'0 0.0
2014-Sep-26 17:28N 49°12' W 123°57'0 0.0
2014-Sep-26 16:28N 49°12' W 123°57'0 0.0
2014-Sep-26 15:04N 49°12' W 123°57'0 0.0
2014-Sep-26 14:28N 49°12' W 123°57'0 0.0
2014-Sep-26 13:28N 49°12' W 123°57'0 0.0
2014-Sep-26 12:16N 49°12' W 123°57'0 0.0
2014-Sep-26 11:28N 49°12' W 123°57'0 0.0
2014-Sep-26 10:25N 49°12' W 123°57'0 0.0
2014-Sep-26 09:22N 49°12' W 123°57'0 0.0
2014-Sep-26 08:28N 49°12' W 123°57'0 0.0
2014-Sep-26 07:28N 49°12' W 123°57'0 0.0
2014-Sep-26 06:28N 49°12' W 123°57'1313.8
2014-Sep-26 05:34N 49°16' W 123°39'1615.5
2014-Sep-26 04:30N 49°23' W 123°16'1212.8
2014-Sep-26 03:34N 49°17' W 123°33'1716.8
2014-Sep-26 02:33N 49°12' W 123°57'1211.9
2014-Sep-26 01:34N 49°16' W 123°41'1717.0
2014-Sep-26 00:33N 49°23' W 123°16'5 5.3
2014-Sep-25 23:33N 49°19' W 123°23'2019.8
2014-Sep-25 22:33N 49°14' W 123°52'4 3.5
2014-Sep-25 21:33N 49°12' W 123°57'1919.5
2014-Sep-25 20:34N 49°19' W 123°28'9 8.7
2014-Sep-25 19:33N 49°23' W 123°16'1313.0
2014-Sep-25 18:33N 49°17' W 123°34'1615.0
2014-Sep-25 17:29N 49°12' W 123°57'1111.4
2014-Sep-25 16:33N 49°16' W 123°43'1818.5
2014-Sep-25 15:33N 49°23' W 123°16'6 5.8
2014-Sep-25 14:33N 49°19' W 123°23'2019.7
2014-Sep-25 13:33N 49°14' W 123°52'4 3.5
2014-Sep-25 12:27N 49°12' W 123°57'0 0.0
2014-Sep-25 11:27N 49°12' W 123°57'0 0.0
2014-Sep-25 10:27N 49°12' W 123°57'0 0.0
2014-Sep-25 09:33N 49°12' W 123°57'0 0.0
2014-Sep-25 08:33N 49°12' W 123°57'0 0.0
2014-Sep-25 07:33N 49°12' W 123°57'0 0.0
2014-Sep-25 06:27N 49°12' W 123°57'1011.5
2014-Sep-25 05:33N 49°16' W 123°43'1918.8
2014-Sep-25 04:34N 49°23' W 123°16'9 8.6
2014-Sep-25 03:34N 49°18' W 123°27'2019.8
2014-Sep-25 02:34N 49°12' W 123°56'6 6.0
2014-Sep-25 01:33N 49°15' W 123°48'2019.6
2014-Sep-25 00:33N 49°21' W 123°20'0 0.0
2014-Sep-24 23:33N 49°21' W 123°20'1919.2
2014-Sep-24 22:33N 49°14' W 123°47'7 7.1
2014-Sep-24 21:33N 49°12' W 123°57'1716.6
2014-Sep-24 20:33N 49°18' W 123°34'1212.3
2014-Sep-24 19:33N 49°23' W 123°16'1212.4
2014-Sep-24 18:33N 49°16' W 123°33'1716.8
2014-Sep-24 17:33N 49°12' W 123°57'1010.1
2014-Sep-24 16:33N 49°16' W 123°43'1918.8
2014-Sep-24 15:33N 49°23' W 123°16'6 5.8
2014-Sep-24 14:33N 49°19' W 123°22'2020.2
2014-Sep-24 13:33N 49°14' W 123°52'4 3.8
2014-Sep-24 12:33N 49°12' W 123°57'0 0.0
2014-Sep-24 11:20N 49°12' W 123°57'0 0.0
2014-Sep-24 09:08N 49°12' W 123°57'0 0.0
2014-Sep-24 08:14N 49°12' W 123°57'0 0.0
2014-Sep-24 07:14N 49°12' W 123°57'0 0.0
2014-Sep-24 06:13N 49°12' W 123°57'1015.4
2014-Sep-24 05:34N 49°16' W 123°43'1918.9
2014-Sep-24 04:34N 49°23' W 123°16'9 8.9
2014-Sep-24 03:33N 49°18' W 123°27'2019.8
2014-Sep-24 02:33N 49°12' W 123°57'6 6.1
2014-Sep-24 01:34N 49°15' W 123°49'2019.6
2014-Sep-24 00:34N 49°21' W 123°20'0 0.1
2014-Sep-23 23:33N 49°21' W 123°20'1919.3
2014-Sep-23 22:33N 49°14' W 123°48'7 6.6
2014-Sep-23 21:32N 49°12' W 123°57'1818.4
2014-Sep-23 20:34N 49°18' W 123°32'1111.0
2014-Sep-23 19:33N 49°23' W 123°16'1312.8
2014-Sep-23 18:33N 49°17' W 123°34'1616.3
2014-Sep-23 17:33N 49°12' W 123°57'10 9.6
2014-Sep-23 16:34N 49°16' W 123°44'1919.2
2014-Sep-23 15:34N 49°23' W 123°17'6 6.2
2014-Sep-23 14:33N 49°19' W 123°24'2019.8
2014-Sep-23 13:33N 49°13' W 123°53'3 2.7
2014-Sep-23 12:18N 49°12' W 123°57'0 0.0
2014-Sep-23 06:24N 49°12' W 123°57'1315.7
2014-Sep-23 05:34N 49°17' W 123°39'1614.4
2014-Sep-23 04:28N 49°23' W 123°16'1213.3
2014-Sep-23 03:33N 49°17' W 123°32'1715.1
2014-Sep-23 02:26N 49°12' W 123°57'1011.8
2014-Sep-23 01:34N 49°16' W 123°43'1918.8
2014-Sep-23 00:33N 49°23' W 123°16'6 6.1
2014-Sep-22 23:34N 49°19' W 123°23'2019.9
2014-Sep-22 22:34N 49°14' W 123°52'3 2.8
2014-Sep-22 21:34N 49°12' W 123°56'2019.9
2014-Sep-22 20:34N 49°19' W 123°27'8 8.1
2014-Sep-22 19:33N 49°23' W 123°16'1414.3
2014-Sep-22 18:34N 49°16' W 123°36'1514.7
2014-Sep-22 17:33N 49°12' W 123°57'1110.7
2014-Sep-22 16:33N 49°16' W 123°42'1818.3
2014-Sep-22 15:33N 49°23' W 123°16'7 6.6
2014-Sep-22 14:34N 49°19' W 123°24'2019.9
2014-Sep-22 13:34N 49°13' W 123°54'3 2.8
2014-Sep-22 12:31N 49°12' W 123°57'0 0.0
2014-Sep-22 11:28N 49°12' W 123°57'0 0.0
2014-Sep-22 10:25N 49°12' W 123°57'0 0.0
2014-Sep-22 09:31N 49°12' W 123°57'0 0.0
2014-Sep-22 08:28N 49°12' W 123°57'0 0.0
2014-Sep-22 07:28N 49°12' W 123°57'0 0.0
2014-Sep-22 05:22N 49°12' W 123°57'0 0.0
2014-Sep-22 04:16N 49°12' W 123°57'0 0.0
2014-Sep-22 03:33N 49°12' W 123°57'1716.9
2014-Sep-22 02:33N 49°18' W 123°33'1212.1
2014-Sep-22 01:33N 49°23' W 123°16'9 8.6
2014-Sep-22 00:33N 49°26' W 123°28'8 8.1
2014-Sep-21 23:34N 49°24' W 123°16'5 4.8
2014-Sep-21 22:33N 49°20' W 123°21'2019.8
2014-Sep-21 21:33N 49°14' W 123°50'6 1.3
2014-Sep-21 17:24N 49°12' W 123°57'0 0.0
2014-Sep-21 15:30N 49°12' W 123°57'0 0.0
2014-Sep-21 14:18N 49°12' W 123°57'0 0.0
2014-Sep-21 13:30N 49°12' W 123°57'0 0.0
2014-Sep-21 12:30N 49°12' W 123°57'0 0.0
2014-Sep-21 11:30N 49°12' W 123°57'0 0.0
2014-Sep-21 10:12N 49°12' W 123°57'0 0.0
2014-Sep-21 08:30N 49°12' W 123°57'0 0.0
2014-Sep-21 07:30N 49°12' W 123°57'0 0.0
2014-Sep-21 06:24N 49°12' W 123°57'0 0.0
2014-Sep-21 05:30N 49°12' W 123°57'0 0.0
2014-Sep-21 04:12N 49°12' W 123°57'0 0.0
2014-Sep-21 01:15N 49°12' W 123°57'0 0.0
2014-Sep-21 00:33N 49°12' W 123°57'0 0.0
2014-Sep-20 23:33N 49°12' W 123°57'0 0.0
2014-Sep-20 22:30N 49°12' W 123°57'0 0.0
2014-Sep-20 19:12N 49°12' W 123°57'0 0.0
2014-Sep-20 16:30N 49°12' W 123°57'0 0.0
2014-Sep-20 15:33N 49°12' W 123°57'0 0.0
2014-Sep-20 14:24N 49°12' W 123°57'0 0.0
2014-Sep-20 13:30N 49°12' W 123°57'0 0.0
2014-Sep-20 12:30N 49°12' W 123°57'0 0.0
2014-Sep-20 11:24N 49°12' W 123°57'0 0.0
2014-Sep-20 10:30N 49°12' W 123°57'0 0.0
2014-Sep-20 09:30N 49°12' W 123°57'0 0.0
2014-Sep-20 08:24N 49°12' W 123°57'  

Dump ship's entire track history